Time;durP1;ratioP1;P1;durP2;ratioP2;P2;SDS_P1;SDS_P2;PMS_P1;PMS_P2;Temp;Humidity;BMP_temperature;BMP_pressure;BME280_temperature;BME280_humidity;BME280_pressure;Samples;Min_cycle;Max_cycle;Signal;HPM_P1;HPM_P2
2023/03/15 00:01:34;;;;;;;15.85;2.38;;;;;;;;;;5051245;28;20533;-73
2023/03/15 00:04:00;;;;;;;13.95;2.35;;;;;;;;;;5051141;28;20100;-74
2023/03/15 00:06:26;;;;;;;9.48;1.92;;;;;;;;;;5051391;28;20022;-74
2023/03/15 00:08:52;;;;;;;12.20;1.95;;;;;;;;;;5051392;28;20479;-74
2023/03/15 00:11:18;;;;;;;13.02;1.80;;;;;;;;;;5051430;28;20067;-73
2023/03/15 00:13:45;;;;;;;13.10;1.98;;;;;;;;;;5051158;28;20429;-72
2023/03/15 00:16:16;;;;;;;9.70;2.47;;;;;;;;;;5051269;28;20083;-73
2023/03/15 00:18:42;;;;;;;9.30;2.08;;;;;;;;;;5051275;28;20403;-73
2023/03/15 00:21:08;;;;;;;9.57;2.13;;;;;;;;;;5051264;28;20527;-73
2023/03/15 00:23:34;;;;;;;10.65;1.92;;;;;;;;;;5051080;28;20029;-72
2023/03/15 00:26:00;;;;;;;7.93;2.15;;;;;;;;;;5051292;28;20498;-74
2023/03/15 00:28:25;;;;;;;11.02;2.63;;;;;;;;;;5051126;28;20064;-74
2023/03/15 00:31:02;;;;;;;8.75;2.05;;;;;;;;;;5051098;28;20028;-73
2023/03/15 00:33:27;;;;;;;11.05;2.00;;;;;;;;;;5053362;28;20039;-74
2023/03/15 00:35:53;;;;;;;21.95;2.88;;;;;;;;;;5054880;28;20021;-73
2023/03/15 00:38:20;;;;;;;16.60;2.63;;;;;;;;;;5054730;28;20505;-73
2023/03/15 00:40:46;;;;;;;7.97;1.98;;;;;;;;;;5054692;28;20041;-72
2023/03/15 00:43:16;;;;;;;17.60;2.92;;;;;;;;;;5054144;28;20017;-73
2023/03/15 00:45:44;;;;;;;9.52;2.28;;;;;;;;;;5054767;28;20037;-73
2023/03/15 00:48:10;;;;;;;9.18;2.40;;;;;;;;;;5054615;28;20090;-72
2023/03/15 00:50:36;;;;;;;13.73;2.28;;;;;;;;;;5054781;28;20032;-73
2023/03/15 00:53:03;;;;;;;10.23;2.20;;;;;;;;;;5054179;28;20049;-72
2023/03/15 00:55:29;;;;;;;9.60;1.83;;;;;;;;;;5054835;28;20071;-73
2023/03/15 00:57:56;;;;;;;16.60;2.65;;;;;;;;;;5054184;28;20029;-73
2023/03/15 01:00:23;;;;;;;14.25;2.60;;;;;;;;;;5053980;28;20552;-73
2023/03/15 01:02:53;;;;;;;14.63;2.80;;;;;;;;;;5049673;28;20024;-73
2023/03/15 01:05:19;;;;;;;10.88;2.15;;;;;;;;;;5054068;28;20021;-73
2023/03/15 01:07:45;;;;;;;17.00;2.30;;;;;;;;;;5053920;28;20437;-73
2023/03/15 01:10:12;;;;;;;15.27;2.83;;;;;;;;;;5054110;28;20447;-73
2023/03/15 01:12:38;;;;;;;10.32;2.20;;;;;;;;;;5052517;28;20079;-73
2023/03/15 01:15:06;;;;;;;12.48;2.47;;;;;;;;;;5054112;28;20147;-72
2023/03/15 01:17:32;;;;;;;12.70;2.38;;;;;;;;;;5053936;28;20061;-73
2023/03/15 01:19:59;;;;;;;20.05;3.00;;;;;;;;;;5053968;28;20021;-72
2023/03/15 01:22:25;;;;;;;13.55;2.35;;;;;;;;;;5053541;28;20021;-73
2023/03/15 01:24:51;;;;;;;17.67;2.28;;;;;;;;;;5052806;28;20028;-72
2023/03/15 01:27:17;;;;;;;18.13;2.58;;;;;;;;;;5051548;28;20024;-73
2023/03/15 01:29:43;;;;;;;16.85;2.75;;;;;;;;;;5052890;28;20095;-73
2023/03/15 01:32:09;;;;;;;11.95;2.50;;;;;;;;;;5052469;28;20025;-74
2023/03/15 01:34:35;;;;;;;7.32;2.28;;;;;;;;;;5052787;28;20029;-74
2023/03/15 01:37:01;;;;;;;13.02;2.58;;;;;;;;;;5052857;28;20418;-74
2023/03/15 01:39:28;;;;;;;17.77;2.65;;;;;;;;;;5052544;28;20474;-75
2023/03/15 01:41:54;;;;;;;11.38;2.08;;;;;;;;;;5052281;28;20478;-73
2023/03/15 01:44:20;;;;;;;9.93;2.25;;;;;;;;;;5051443;28;20041;-74
2023/03/15 01:46:46;;;;;;;7.32;1.95;;;;;;;;;;5052338;28;20021;-74
2023/03/15 01:49:12;;;;;;;13.95;2.40;;;;;;;;;;5052392;28;20036;-74
2023/03/15 01:51:44;;;;;;;7.32;2.05;;;;;;;;;;5052334;28;20029;-74
2023/03/15 01:54:19;;;;;;;8.90;2.30;;;;;;;;;;5052281;28;20075;-73
2023/03/15 01:56:48;;;;;;;7.05;2.25;;;;;;;;;;5052127;28;20091;-73
2023/03/15 01:59:18;;;;;;;8.93;2.28;;;;;;;;;;5052099;28;20029;-72
2023/03/15 02:01:49;;;;;;;7.60;2.00;;;;;;;;;;5052050;28;20077;-73
2023/03/15 02:04:17;;;;;;;4.38;2.30;;;;;;;;;;5053159;28;20055;-73
2023/03/15 02:06:45;;;;;;;8.85;2.40;;;;;;;;;;5051898;28;20033;-73
2023/03/15 02:09:13;;;;;;;6.22;2.13;;;;;;;;;;5052101;28;20498;-73
2023/03/15 02:11:40;;;;;;;9.95;2.30;;;;;;;;;;5052178;28;20028;-73
2023/03/15 02:14:07;;;;;;;5.70;2.63;;;;;;;;;;5051754;28;20029;-73
2023/03/15 02:16:33;;;;;;;7.95;2.45;;;;;;;;;;5051720;28;20029;-73
2023/03/15 02:18:59;;;;;;;18.73;2.97;;;;;;;;;;5051688;28;20078;-73
2023/03/15 02:21:25;;;;;;;9.68;2.55;;;;;;;;;;5051829;28;20413;-73
2023/03/15 02:23:57;;;;;;;12.40;2.90;;;;;;;;;;5051075;28;20104;-73
2023/03/15 02:26:34;;;;;;;9.05;2.60;;;;;;;;;;5051707;28;20025;-73
2023/03/15 02:29:00;;;;;;;9.93;2.58;;;;;;;;;;5052329;28;20525;-72
2023/03/15 02:31:26;;;;;;;7.50;2.78;;;;;;;;;;5051676;28;20052;-73
2023/03/15 02:33:55;;;;;;;12.70;2.90;;;;;;;;;;5051624;28;20100;-73
2023/03/15 02:36:26;;;;;;;13.40;3.28;;;;;;;;;;5052449;28;20036;-73
2023/03/15 02:38:53;;;;;;;11.80;2.92;;;;;;;;;;5052807;28;20102;-72
2023/03/15 02:41:25;;;;;;;10.23;2.90;;;;;;;;;;5054551;28;20056;-73
2023/03/15 02:43:53;;;;;;;9.02;3.20;;;;;;;;;;5054124;28;20076;-72
2023/03/15 02:46:20;;;;;;;8.68;2.97;;;;;;;;;;5051499;28;20043;-73
2023/03/15 02:48:46;;;;;;;8.65;3.08;;;;;;;;;;5051360;28;20103;-73
2023/03/15 02:51:23;;;;;;;12.32;3.15;;;;;;;;;;5051347;28;20029;-74
2023/03/15 02:53:49;;;;;;;12.30;3.30;;;;;;;;;;5051320;28;20090;-73
2023/03/15 02:56:15;;;;;;;8.95;3.60;;;;;;;;;;5051021;28;20032;-73
2023/03/15 02:58:44;;;;;;;10.57;3.30;;;;;;;;;;5051910;28;20032;-73
2023/03/15 03:01:12;;;;;;;9.60;3.55;;;;;;;;;;5052480;28;20021;-73
2023/03/15 03:03:37;;;;;;;10.80;3.60;;;;;;;;;;5050185;28;20422;-73
2023/03/15 03:06:04;;;;;;;14.02;3.67;;;;;;;;;;5051323;28;20025;-74
2023/03/15 03:08:29;;;;;;;12.23;3.75;;;;;;;;;;5054703;28;20085;-73
2023/03/15 03:10:55;;;;;;;8.48;3.67;;;;;;;;;;5051803;28;20102;-73
2023/03/15 03:13:21;;;;;;;12.38;3.30;;;;;;;;;;5051534;28;20024;-71
2023/03/15 03:15:49;;;;;;;10.68;3.17;;;;;;;;;;5050274;28;20056;-71
2023/03/15 03:18:15;;;;;;;10.07;3.50;;;;;;;;;;5051698;28;20028;-73
2023/03/15 03:20:41;;;;;;;8.23;3.40;;;;;;;;;;5049989;28;20025;-72
2023/03/15 03:23:07;;;;;;;11.00;3.78;;;;;;;;;;5052158;28;20032;-72
2023/03/15 03:25:35;;;;;;;8.55;3.67;;;;;;;;;;5050772;28;20025;-72
2023/03/15 03:28:03;;;;;;;11.77;4.15;;;;;;;;;;5051256;28;20528;-72
2023/03/15 03:30:29;;;;;;;10.57;4.05;;;;;;;;;;5051328;28;20024;-72
2023/03/15 03:32:56;;;;;;;12.50;3.97;;;;;;;;;;5051213;28;20032;-72
2023/03/15 03:35:22;;;;;;;13.90;4.05;;;;;;;;;;5051464;28;20017;-72
2023/03/15 03:37:48;;;;;;;10.02;3.88;;;;;;;;;;5047654;28;20024;-72
2023/03/15 03:40:14;;;;;;;10.85;3.85;;;;;;;;;;5040390;28;20105;-72
2023/03/15 03:42:40;;;;;;;6.68;3.60;;;;;;;;;;5057688;28;20313;-71
2023/03/15 03:45:06;;;;;;;3.92;2.10;;;;;;;;;;5045594;28;20546;-72
2023/03/15 03:47:33;;;;;;;4.82;2.03;;;;;;;;;;5050178;28;20061;-71
2023/03/15 03:49:59;;;;;;;4.47;1.48;;;;;;;;;;5053534;28;20055;-71
2023/03/15 03:52:25;;;;;;;4.40;1.27;;;;;;;;;;5051483;28;20037;-71
2023/03/15 03:54:51;;;;;;;2.67;1.30;;;;;;;;;;5050264;28;20025;-71
2023/03/15 03:57:17;;;;;;;1.58;0.73;;;;;;;;;;5055868;28;20025;-71
2023/03/15 03:59:43;;;;;;;3.45;0.80;;;;;;;;;;5050195;28;20021;-72
2023/03/15 04:02:09;;;;;;;1.42;0.93;;;;;;;;;;5050692;28;20100;-72
2023/03/15 04:04:35;;;;;;;4.10;1.25;;;;;;;;;;5049318;28;20025;-71
2023/03/15 04:07:01;;;;;;;2.75;1.10;;;;;;;;;;5053282;28;20031;-72
2023/03/15 04:09:27;;;;;;;2.78;1.33;;;;;;;;;;5053403;28;20021;-71
2023/03/15 04:11:53;;;;;;;2.25;0.93;;;;;;;;;;5053833;28;20027;-73
2023/03/15 04:14:19;;;;;;;1.95;0.98;;;;;;;;;;5055639;28;20044;-72
2023/03/15 04:16:45;;;;;;;1.85;1.13;;;;;;;;;;5055833;28;20441;-72
2023/03/15 04:19:14;;;;;;;1.55;1.10;;;;;;;;;;5055767;28;20033;-72
2023/03/15 04:21:46;;;;;;;2.72;1.30;;;;;;;;;;5055884;28;20100;-73
2023/03/15 04:24:12;;;;;;;2.50;1.48;;;;;;;;;;5054680;28;20078;-74
2023/03/15 04:26:38;;;;;;;2.47;1.63;;;;;;;;;;5056237;28;20024;-74
2023/03/15 04:29:04;;;;;;;4.30;1.88;;;;;;;;;;5055409;28;20536;-76
2023/03/15 04:31:36;;;;;;;4.03;2.50;;;;;;;;;;5054656;28;20021;-75
2023/03/15 04:34:02;;;;;;;3.55;2.15;;;;;;;;;;5055151;28;20024;-71
2023/03/15 04:36:28;;;;;;;5.35;2.30;;;;;;;;;;5055076;28;20448;-72
2023/03/15 04:39:04;;;;;;;4.13;2.22;;;;;;;;;;5054961;28;20029;-71
2023/03/15 04:41:30;;;;;;;3.78;2.67;;;;;;;;;;5054730;28;20017;-72
2023/03/15 04:43:56;;;;;;;6.80;3.83;;;;;;;;;;5050744;28;20036;-71
2023/03/15 04:46:22;;;;;;;13.50;5.97;;;;;;;;;;5054406;28;20029;-73
2023/03/15 04:48:50;;;;;;;15.73;7.80;;;;;;;;;;5054232;28;20078;-75
2023/03/15 04:51:16;;;;;;;16.45;8.10;;;;;;;;;;5054290;28;20459;-75
2023/03/15 04:53:42;;;;;;;17.95;8.50;;;;;;;;;;5048868;28;20347;-76
2023/03/15 04:56:08;;;;;;;25.48;11.38;;;;;;;;;;5054299;28;20025;-73
2023/03/15 04:58:33;;;;;;;19.65;11.07;;;;;;;;;;5063510;28;20024;-75
2023/03/15 05:00:59;;;;;;;20.63;11.30;;;;;;;;;;5055088;28;20100;-75
2023/03/15 05:03:25;;;;;;;17.90;11.57;;;;;;;;;;5049108;28;20536;-74
2023/03/15 05:05:51;;;;;;;20.88;11.63;;;;;;;;;;5054329;28;20292;-74
2023/03/15 05:08:17;;;;;;;23.02;13.07;;;;;;;;;;5056184;28;20478;-74
2023/03/15 05:10:43;;;;;;;17.73;11.68;;;;;;;;;;5053692;28;20036;-75
2023/03/15 05:13:09;;;;;;;23.00;12.10;;;;;;;;;;5054421;28;20494;-76
2023/03/15 05:15:35;;;;;;;22.85;11.77;;;;;;;;;;5054352;28;20036;-71
2023/03/15 05:18:02;;;;;;;18.88;11.07;;;;;;;;;;5053816;28;20029;-71
2023/03/15 05:20:28;;;;;;;25.70;11.98;;;;;;;;;;5054060;28;20044;-72
2023/03/15 05:22:54;;;;;;;21.02;11.25;;;;;;;;;;5053898;28;20405;-71
2023/03/15 05:25:20;;;;;;;19.13;10.80;;;;;;;;;;5054132;28;20056;-72
2023/03/15 05:27:46;;;;;;;21.23;12.10;;;;;;;;;;5053525;28;20032;-71
2023/03/15 05:30:15;;;;;;;23.30;10.30;;;;;;;;;;5053869;28;20025;-72
2023/03/15 05:32:43;;;;;;;19.83;11.02;;;;;;;;;;5053999;28;20482;-72
2023/03/15 05:35:10;;;;;;;26.80;9.57;;;;;;;;;;5053956;28;20130;-73
2023/03/15 05:37:36;;;;;;;22.38;9.65;;;;;;;;;;5053751;28;20386;-75
2023/03/15 05:40:03;;;;;;;20.63;10.00;;;;;;;;;;5048229;28;20064;-73
2023/03/15 05:42:29;;;;;;;18.38;9.18;;;;;;;;;;5055735;28;20101;-74
2023/03/15 05:44:56;;;;;;;21.77;9.90;;;;;;;;;;5053890;28;20497;-75
2023/03/15 05:47:22;;;;;;;23.88;9.43;;;;;;;;;;5048559;28;20037;-75
2023/03/15 05:49:48;;;;;;;16.70;7.80;;;;;;;;;;5054007;28;20031;-76
2023/03/15 05:52:15;;;;;;;23.42;7.95;;;;;;;;;;5053041;28;20017;-75
2023/03/15 05:54:41;;;;;;;20.08;8.70;;;;;;;;;;5052920;28;20066;-74
2023/03/15 05:57:07;;;;;;;20.45;8.88;;;;;;;;;;5053043;28;20043;-72
2023/03/15 05:59:33;;;;;;;19.02;8.27;;;;;;;;;;5053076;28;20031;-73
2023/03/15 06:01:59;;;;;;;22.95;8.77;;;;;;;;;;5052935;28;20021;-72
2023/03/15 06:04:25;;;;;;;23.85;8.65;;;;;;;;;;5052980;28;20021;-72
2023/03/15 06:06:51;;;;;;;13.95;8.13;;;;;;;;;;5052933;28;20468;-72
2023/03/15 06:09:17;;;;;;;27.23;9.68;;;;;;;;;;5053391;28;20029;-72
2023/03/15 06:11:43;;;;;;;19.33;8.48;;;;;;;;;;5052452;28;20031;-70
2023/03/15 06:14:09;;;;;;;22.27;8.40;;;;;;;;;;5052840;28;20543;-72
2023/03/15 06:16:35;;;;;;;23.67;9.15;;;;;;;;;;5052824;28;20029;-72
2023/03/15 06:19:02;;;;;;;24.52;8.65;;;;;;;;;;5052593;28;20470;-73
2023/03/15 06:21:28;;;;;;;15.70;8.50;;;;;;;;;;5052686;28;20159;-76
2023/03/15 06:23:54;;;;;;;19.23;8.20;;;;;;;;;;5052941;28;20493;-73
2023/03/15 06:26:21;;;;;;;24.50;9.10;;;;;;;;;;5048805;28;20058;-73
2023/03/15 06:28:47;;;;;;;17.80;8.00;;;;;;;;;;5052820;28;20143;-74
2023/03/15 06:31:15;;;;;;;23.33;9.07;;;;;;;;;;5053209;28;20490;-74
2023/03/15 06:33:41;;;;;;;22.55;8.50;;;;;;;;;;5055962;28;20486;-73
2023/03/15 06:36:07;;;;;;;21.38;8.43;;;;;;;;;;5049259;28;20039;-72
2023/03/15 06:38:33;;;;;;;23.23;8.40;;;;;;;;;;5057152;28;20044;-74
2023/03/15 06:41:00;;;;;;;23.70;8.63;;;;;;;;;;5051882;28;20017;-74
2023/03/15 06:43:26;;;;;;;19.45;7.47;;;;;;;;;;5051858;28;20025;-72
2023/03/15 06:45:57;;;;;;;25.90;8.93;;;;;;;;;;5051058;28;20502;-74
2023/03/15 06:48:23;;;;;;;18.15;8.00;;;;;;;;;;5048568;28;20021;-73
2023/03/15 06:50:49;;;;;;;21.83;7.82;;;;;;;;;;5051892;28;20095;-74
2023/03/15 06:53:15;;;;;;;33.20;8.63;;;;;;;;;;5051665;28;20083;-74
2023/03/15 06:55:41;;;;;;;20.73;7.70;;;;;;;;;;5052764;28;20060;-75
2023/03/15 06:58:07;;;;;;;21.40;8.20;;;;;;;;;;5052839;28;20027;-73
2023/03/15 07:00:34;;;;;;;24.60;8.18;;;;;;;;;;5052665;28;20025;-73
2023/03/15 07:03:00;;;;;;;18.60;6.78;;;;;;;;;;5047645;28;20039;-73
2023/03/15 07:05:26;;;;;;;26.25;7.50;;;;;;;;;;5048668;28;20382;-73
2023/03/15 07:07:52;;;;;;;19.50;6.78;;;;;;;;;;5052628;28;20032;-73
2023/03/15 07:10:18;;;;;;;15.05;6.82;;;;;;;;;;5051911;28;20429;-74
2023/03/15 07:12:44;;;;;;;21.75;6.93;;;;;;;;;;5051986;28;20029;-74
2023/03/15 07:15:10;;;;;;;22.45;6.70;;;;;;;;;;5052141;28;20024;-73
2023/03/15 07:17:37;;;;;;;18.75;5.78;;;;;;;;;;5052020;28;20025;-72
2023/03/15 07:20:04;;;;;;;17.23;5.63;;;;;;;;;;5051795;28;20036;-73
2023/03/15 07:22:30;;;;;;;17.55;5.22;;;;;;;;;;5053282;28;20397;-75
2023/03/15 07:24:56;;;;;;;15.85;5.60;;;;;;;;;;5051864;28;20024;-74
2023/03/15 07:27:22;;;;;;;19.13;5.30;;;;;;;;;;5052332;28;20023;-75
2023/03/15 07:29:48;;;;;;;19.25;6.57;;;;;;;;;;5052031;28;20036;-74
2023/03/15 07:32:15;;;;;;;13.35;5.15;;;;;;;;;;5052031;28;20024;-75
2023/03/15 07:34:41;;;;;;;13.23;4.65;;;;;;;;;;5051565;28;20100;-74
2023/03/15 07:37:07;;;;;;;17.50;5.03;;;;;;;;;;5050931;28;20555;-73
2023/03/15 07:39:32;;;;;;;21.10;6.60;;;;;;;;;;5051403;28;20124;-74
2023/03/15 07:41:59;;;;;;;17.05;6.22;;;;;;;;;;5051421;28;20115;-74
2023/03/15 07:44:25;;;;;;;10.80;4.78;;;;;;;;;;5056181;28;20486;-73
2023/03/15 07:46:51;;;;;;;13.40;5.68;;;;;;;;;;5055657;28;20025;-71
2023/03/15 07:49:17;;;;;;;13.90;4.50;;;;;;;;;;5053064;28;20079;-73
2023/03/15 07:51:43;;;;;;;11.70;4.30;;;;;;;;;;5054156;28;20029;-73
2023/03/15 07:54:09;;;;;;;13.73;5.28;;;;;;;;;;5054122;28;20032;-73
2023/03/15 07:56:35;;;;;;;12.00;4.80;;;;;;;;;;5054236;28;20028;-73
2023/03/15 07:59:01;;;;;;;19.27;4.72;;;;;;;;;;5053044;28;20025;-71
2023/03/15 08:01:27;;;;;;;10.65;4.47;;;;;;;;;;5054002;28;20025;-74
2023/03/15 08:03:53;;;;;;;16.77;4.53;;;;;;;;;;5043780;28;20053;-71
2023/03/15 08:06:19;;;;;;;11.93;4.28;;;;;;;;;;5043608;28;20502;-71
2023/03/15 08:08:45;;;;;;;14.48;4.28;;;;;;;;;;5046123;28;20025;-72
2023/03/15 08:11:12;;;;;;;14.90;4.40;;;;;;;;;;5047718;28;20033;-72
2023/03/15 08:13:38;;;;;;;17.67;4.47;;;;;;;;;;5047298;28;20063;-72
2023/03/15 08:16:04;;;;;;;16.15;4.20;;;;;;;;;;5047932;28;20061;-73
2023/03/15 08:18:30;;;;;;;14.60;4.13;;;;;;;;;;5053912;28;20056;-70
2023/03/15 08:20:57;;;;;;;20.35;5.40;;;;;;;;;;5055010;28;20036;-71
2023/03/15 08:23:23;;;;;;;11.38;4.30;;;;;;;;;;5054756;28;20017;-72
2023/03/15 08:25:49;;;;;;;15.90;3.95;;;;;;;;;;5065019;28;20024;-71
2023/03/15 08:28:15;;;;;;;7.75;3.65;;;;;;;;;;5062505;28;20017;-72
2023/03/15 08:30:41;;;;;;;11.07;3.35;;;;;;;;;;5056671;28;20025;-71
2023/03/15 08:33:08;;;;;;;7.55;3.35;;;;;;;;;;5067207;28;20368;-71
2023/03/15 08:35:34;;;;;;;8.82;3.08;;;;;;;;;;5053377;28;21474;-71
2023/03/15 08:38:01;;;;;;;6.32;2.03;;;;;;;;;;5052056;28;20020;-73
2023/03/15 08:40:28;;;;;;;8.35;2.05;;;;;;;;;;5052844;28;20021;-72
2023/03/15 08:42:54;;;;;;;11.02;2.28;;;;;;;;;;5052431;28;20382;-73
2023/03/15 08:45:22;;;;;;;6.47;1.77;;;;;;;;;;5052248;28;20040;-71
2023/03/15 08:47:48;;;;;;;7.80;2.05;;;;;;;;;;5052582;28;20052;-73
2023/03/15 08:50:15;;;;;;;8.15;1.90;;;;;;;;;;5052548;28;20463;-72
2023/03/15 08:52:42;;;;;;;6.25;1.67;;;;;;;;;;5053162;28;20036;-75
2023/03/15 08:55:08;;;;;;;7.90;1.77;;;;;;;;;;5053515;28;20029;-73
2023/03/15 08:57:34;;;;;;;6.68;1.60;;;;;;;;;;5061781;28;20091;-75
2023/03/15 09:00:06;;;;;;;9.73;2.00;;;;;;;;;;5049440;28;20028;-73
2023/03/15 09:02:32;;;;;;;9.82;1.98;;;;;;;;;;5051166;28;20194;-72
2023/03/15 09:04:58;;;;;;;12.20;2.20;;;;;;;;;;5046190;28;20020;-73
2023/03/15 09:07:24;;;;;;;10.20;1.75;;;;;;;;;;5053655;28;20104;-73
2023/03/15 09:09:53;;;;;;;12.85;2.53;;;;;;;;;;5043085;28;20032;-73
2023/03/15 09:12:20;;;;;;;10.23;2.30;;;;;;;;;;5049830;28;20022;-71
2023/03/15 09:14:46;;;;;;;26.38;11.82;;;;;;;;;;5046487;28;20111;-72
2023/03/15 09:17:11;;;;;;;7.20;1.83;;;;;;;;;;5053762;28;20175;-72
2023/03/15 09:19:38;;;;;;;6.85;1.95;;;;;;;;;;5046753;28;20495;-73
2023/03/15 09:22:04;;;;;;;8.60;1.55;;;;;;;;;;5053464;28;20021;-72
2023/03/15 09:24:30;;;;;;;9.48;1.70;;;;;;;;;;5053900;28;20386;-74
2023/03/15 09:26:57;;;;;;;9.90;1.73;;;;;;;;;;5054374;28;20377;-71
2023/03/15 09:29:23;;;;;;;13.88;1.92;;;;;;;;;;5053511;28;20060;-73
2023/03/15 09:31:48;;;;;;;5.43;1.20;;;;;;;;;;5054636;28;20364;-73
2023/03/15 09:34:14;;;;;;;9.13;1.40;;;;;;;;;;5054050;28;20033;-72
2023/03/15 09:36:40;;;;;;;6.22;1.13;;;;;;;;;;5053770;28;20111;-72
2023/03/15 09:39:07;;;;;;;10.07;1.65;;;;;;;;;;5053741;28;20025;-73
2023/03/15 09:41:40;;;;;;;5.90;1.23;;;;;;;;;;5053676;28;20071;-73
2023/03/15 09:44:28;;;;;;;6.35;1.30;;;;;;;;;;5053306;28;20390;-73
2023/03/15 09:47:13;;;;;;;5.93;1.50;;;;;;;;;;5053413;28;20112;-72
2023/03/15 09:49:46;;;;;;;5.47;1.48;;;;;;;;;;5053651;28;20094;-72
2023/03/15 09:52:27;;;;;;;7.53;1.42;;;;;;;;;;5053069;28;20057;-73
2023/03/15 09:54:56;;;;;;;10.77;1.80;;;;;;;;;;5053536;28;20500;-72
2023/03/15 09:57:31;;;;;;;7.72;1.60;;;;;;;;;;5053282;28;20044;-73
2023/03/15 09:59:58;;;;;;;9.20;1.75;;;;;;;;;;5053265;28;20040;-72
2023/03/15 10:02:27;;;;;;;12.35;1.67;;;;;;;;;;5052926;28;20390;-72
2023/03/15 10:04:55;;;;;;;11.80;2.13;;;;;;;;;;5052641;28;20491;-72
2023/03/15 10:07:21;;;;;;;16.20;2.53;;;;;;;;;;5052915;28;20100;-72
2023/03/15 10:09:47;;;;;;;11.70;1.85;;;;;;;;;;5052923;28;20474;-72
2023/03/15 10:12:30;;;;;;;6.88;1.80;;;;;;;;;;5052534;28;20021;-74
2023/03/15 10:15:17;;;;;;;10.88;2.28;;;;;;;;;;5053061;28;20029;-74
2023/03/15 10:17:46;;;;;;;14.63;2.72;;;;;;;;;;5054297;28;20490;-73
2023/03/15 10:20:17;;;;;;;11.88;2.47;;;;;;;;;;5053636;28;20033;-72
2023/03/15 10:22:47;;;;;;;8.73;1.73;;;;;;;;;;5052988;28;20032;-72
2023/03/15 10:25:19;;;;;;;6.70;2.08;;;;;;;;;;5052858;28;20117;-75
2023/03/15 10:28:00;;;;;;;14.70;1.95;;;;;;;;;;5052331;28;20103;-73
2023/03/15 10:30:30;;;;;;;13.75;2.10;;;;;;;;;;5052711;28;20028;-72
2023/03/15 10:33:02;;;;;;;16.92;2.83;;;;;;;;;;5052284;28;20039;-73
2023/03/15 10:35:28;;;;;;;11.68;2.08;;;;;;;;;;5052545;28;20031;-73
2023/03/15 10:37:54;;;;;;;9.70;2.05;;;;;;;;;;5052022;28;20048;-73
2023/03/15 10:40:39;;;;;;;11.40;2.72;;;;;;;;;;5052602;28;20029;-71
2023/03/15 10:43:19;;;;;;;13.55;2.15;;;11.60;1.00;;;;;;5052229;28;20047;-72
2023/03/15 10:45:57;;;;;;;8.20;1.63;;;9.80;1.00;;;;;;5049558;28;20079;-71
2023/03/15 10:48:23;;;;;;;7.55;1.60;;;9.30;1.00;;;;;;5046348;28;20115;-74
2023/03/15 10:50:50;;;;;;;5.05;1.25;;;9.10;1.00;;;;;;5051265;28;20531;-72
2023/03/15 10:53:20;;;;;;;7.13;1.05;;;8.90;1.00;;;;;;5049843;28;20028;-72
2023/03/15 10:55:47;;;;;;;6.05;1.35;;;9.70;1.00;;;;;;5051366;28;20021;-72
2023/03/15 10:58:29;;;;;;;4.18;1.33;;;11.60;1.00;;;;;;5048667;28;20032;-72
2023/03/15 11:01:02;;;;;;;10.52;3.15;;;13.80;1.00;;;;;;5043829;28;20032;-74
2023/03/15 11:03:28;;;;;;;7.70;3.00;;;15.80;1.00;;;;;;5049984;28;20029;-75
2023/03/15 11:05:56;;;;;;;6.07;1.67;;;17.00;99.90;;;;;;5051446;28;20428;-72
2023/03/15 11:08:34;;;;;;;5.78;1.33;;;19.00;91.30;;;;;;5049688;28;20036;-76
2023/03/15 11:10:59;;;;;;;8.70;1.40;;;19.00;91.00;;;;;;5032174;28;20032;-72
2023/03/15 11:13:30;;;;;;;4.00;1.02;;;19.90;86.40;;;;;;5032152;28;20025;-72
2023/03/15 11:16:17;;;;;;;3.85;1.25;;;19.60;79.70;;;;;;5031285;28;20029;-72
2023/03/15 11:18:42;;;;;;;4.63;0.93;;;18.60;77.40;;;;;;5031957;28;20022;-75
2023/03/15 11:21:15;;;;;;;3.33;1.20;;;17.90;82.60;;;;;;5032378;28;20037;-72
2023/03/15 11:23:45;;;;;;;5.05;1.23;;;16.80;84.60;;;;;;5031044;28;20033;-71
2023/03/15 11:26:22;;;;;;;16.92;7.53;;;16.20;85.80;;;;;;5031111;28;20036;-72
2023/03/15 11:28:52;;;;;;;6.00;1.50;;;15.50;88.30;;;;;;5030843;28;20033;-73
2023/03/15 11:31:25;;;;;;;7.47;1.73;;;15.10;1.00;;;;;;5030289;28;20040;-72
2023/03/15 11:33:53;;;;;;;13.90;2.08;;;14.80;99.90;;;;;;5030196;28;20508;-73
2023/03/15 11:36:22;;;;;;;9.63;2.40;;;14.40;1.00;;;;;;5029129;28;20072;-72
2023/03/15 11:38:49;;;;;;;7.00;1.42;;;13.80;99.90;;;;;;5030379;28;20021;-71
2023/03/15 11:41:25;;;;;;;6.97;1.17;;;12.50;99.90;;;;;;5030445;28;20029;-72
2023/03/15 11:44:14;;;;;;;5.95;1.20;;;11.00;1.00;;;;;;5030084;28;20026;-72
2023/03/15 11:46:48;;;;;;;10.82;2.40;;;9.90;99.90;;;;;;5030407;28;20013;-73
2023/03/15 11:49:34;;;;;;;10.40;3.17;;;9.10;1.00;;;;;;5030381;28;20033;-73
2023/03/15 11:51:59;;;;;;;9.25;1.75;;;8.50;1.00;;;;;;5029993;28;20030;-74
2023/03/15 11:54:29;;;;;;;10.23;2.00;;;8.10;1.00;;;;;;5030642;28;20530;-74
2023/03/15 11:57:25;;;;;;;10.15;1.88;;;7.90;1.00;;;;;;5031037;28;20100;-73
2023/03/15 11:59:51;;;;;;;10.23;3.10;;;8.20;1.00;;;;;;5027726;28;20041;-73
2023/03/15 12:02:16;;;;;;;7.75;1.92;;;9.70;1.00;;;;;;5030870;28;20441;-74
2023/03/15 12:04:48;;;;;;;7.05;1.27;;;11.80;99.90;;;;;;5030691;28;20078;-71
2023/03/15 12:07:17;;;;;;;8.35;1.67;;;13.90;99.90;;;;;;5041742;28;20031;-72
2023/03/15 12:09:51;;;;;;;9.23;2.33;;;;;;;;;;5050264;28;20167;-72
2023/03/15 12:12:23;;;;;;;9.18;1.75;;;;;;;;;;5050583;28;20029;-72
2023/03/15 12:15:04;;;;;;;12.95;1.42;;;;;;;;;;5050560;28;20025;-71
2023/03/15 12:17:30;;;;;;;7.40;1.80;;;;;;;;;;5050907;28;20055;-72
2023/03/15 12:19:58;;;;;;;4.30;1.42;;;;;;;;;;5049849;28;20021;-73
2023/03/15 12:22:24;;;;;;;9.00;1.83;;;;;;;;;;5049940;28;20029;-72
2023/03/15 12:24:50;;;;;;;10.68;1.60;;;;;;;;;;5050202;28;20036;-71
2023/03/15 12:27:18;;;;;;;8.07;1.52;;;;;;;;;;5050042;28;20386;-73
2023/03/15 12:29:45;;;;;;;8.27;1.60;;;;;;;;;;5052921;28;20025;-73
2023/03/15 12:32:13;;;;;;;8.32;1.60;;;;;;;;;;5053476;28;20379;-72
2023/03/15 12:34:42;;;;;;;5.85;1.65;;;;;;;;;;5053653;28;20307;-72
2023/03/15 12:37:14;;;;;;;5.50;1.60;;;;;;;;;;5053676;28;20025;-71
2023/03/15 12:39:42;;;;;;;8.57;1.35;;;;;;;;;;5053553;28;20048;-72
2023/03/15 12:42:34;;;;;;;5.88;1.40;;;;;;;;;;5053473;28;20021;-72
2023/03/15 12:45:15;;;;;;;8.07;2.17;;;;;;;;;;5053268;28;20040;-72
2023/03/15 12:47:50;;;;;;;5.78;1.63;;;;;;;;;;5053417;28;20016;-71
2023/03/15 12:50:42;;;;;;;10.60;1.42;;;;;;;;;;5053109;28;20094;-74
2023/03/15 12:53:11;;;;;;;6.50;1.40;;;;;;;;;;5051722;28;20568;-73
2023/03/15 12:55:38;;;;;;;8.80;1.23;;;;;;;;;;5053259;28;20328;-71
2023/03/15 12:58:06;;;;;;;3.60;1.15;;;;;;;;;;5052950;28;20052;-72
2023/03/15 13:00:32;;;;;;;5.63;1.27;;;;;;;;;;5053152;28;20021;-72
2023/03/15 13:03:03;;;;;;;11.18;1.70;;;;;;;;;;5052790;28;20079;-70
2023/03/15 13:05:44;;;;;;;6.63;1.40;;;;;;;;;;5053027;28;20025;-72
2023/03/15 13:08:24;;;;;;;6.18;1.83;;;;;;;;;;5052938;28;20024;-72
2023/03/15 13:10:50;;;;;;;8.15;1.35;;;;;;;;;;5052762;28;20028;-72
2023/03/15 13:13:32;;;;;;;8.63;2.05;;;;;;;;;;5052679;28;20401;-72
2023/03/15 13:16:18;;;;;;;11.25;2.10;;;;;;;;;;5052751;28;20475;-73
2023/03/15 13:18:51;;;;;;;11.82;1.75;;;;;;;;;;5052893;28;20426;-72
2023/03/15 13:21:19;;;;;;;10.18;1.77;;;;;;;;;;5053076;28;20040;-73
2023/03/15 13:23:50;;;;;;;17.20;2.92;;;;;;;;;;5053544;28;20036;-72
2023/03/15 13:26:22;;;;;;;15.43;2.60;;;;;;;;;;5053851;28;20101;-74
2023/03/15 13:28:57;;;;;;;12.10;2.08;;;;;;;;;;5053105;28;20108;-73
2023/03/15 13:31:24;;;;;;;10.80;2.22;;;;;;;;;;5053458;28;20025;-74
2023/03/15 13:33:59;;;;;;;17.30;2.38;;;;;;;;;;5053381;28;20029;-72
2023/03/15 13:36:37;;;;;;;12.63;2.47;;;;;;;;;;5053649;28;20025;-71
2023/03/15 13:39:09;;;;;;;10.00;2.92;;;;;;;;;;5053600;28;20032;-71
2023/03/15 13:41:37;;;;;;;10.35;2.03;;;;;;;;;;5043696;28;20033;-71
2023/03/15 13:44:10;;;;;;;18.40;2.88;;;;;;;;;;5038762;28;20032;-72
2023/03/15 13:46:36;;;;;;;16.38;2.53;;;;;;;;;;5052946;28;20027;-73
2023/03/15 13:49:02;;;;;;;19.67;2.90;;;;;;;;;;5043195;28;20480;-73
2023/03/15 13:51:28;;;;;;;15.95;2.75;;;;;;;;;;5043814;28;20029;-72
2023/03/15 13:53:55;;;;;;;17.30;3.90;;;;;;;;;;5046541;28;20078;-73
2023/03/15 13:56:33;;;;;;;16.63;2.80;;;;;;;;;;5052751;28;20029;-73
2023/03/15 13:59:01;;;;;;;17.23;2.50;;;;;;;;;;5044162;28;20514;-73
2023/03/15 14:01:28;;;;;;;14.65;3.33;;;;;;;;;;5051552;28;20033;-73
2023/03/15 14:04:00;;;;;;;8.90;2.50;;;;;;;;;;5049650;28;20032;-72
2023/03/15 14:06:27;;;;;;;12.73;2.20;;;;;;;;;;5052679;28;20063;-73
2023/03/15 14:09:00;;;;;;;18.00;3.03;;;;;;;;;;5053176;28;20025;-75
2023/03/15 14:11:35;;;;;;;13.57;2.53;;;;;;;;;;5052964;28;20151;-74
2023/03/15 14:14:04;;;;;;;14.73;2.53;;;;;;;;;;5049671;28;20763;-72
2023/03/15 14:16:34;;;;;;;12.73;2.65;;;;;;;;;;5052592;28;20029;-73
2023/03/15 14:19:18;;;;;;;17.98;3.67;;;;;;;;;;5052932;28;20025;-74
2023/03/15 14:21:47;;;;;;;13.13;2.47;;;;;;;;;;5051705;28;20033;-73
2023/03/15 14:24:16;;;;;;;17.27;3.03;;;;;;;;;;5052319;28;20044;-73
2023/03/15 14:26:42;;;;;;;11.73;2.42;;;;;;;;;;5048160;28;20029;-72
2023/03/15 14:29:17;;;;;;;14.52;2.58;;;;;;;;;;5052385;28;20036;-73
2023/03/15 14:31:48;;;;;;;16.90;3.45;;;;;;;;;;5044273;28;20041;-73